createdAt,value
2018-04-22T00:00:24.364Z,73.88
2018-04-22T00:01:24.356Z,73.69
2018-04-22T00:02:24.357Z,73.79
2018-04-22T00:03:24.357Z,73.30
2018-04-22T00:04:24.347Z,73.79
2018-04-22T00:05:24.348Z,72.83
2018-04-22T00:06:24.343Z,73.15
2018-04-22T00:07:24.344Z,73.54
2018-04-22T00:08:24.338Z,71.91
2018-04-22T00:09:24.339Z,71.71
2018-04-22T00:10:24.326Z,71.33
2018-04-22T00:11:24.332Z,70.18
2018-04-22T00:12:24.330Z,68.94
2018-04-22T00:13:24.319Z,68.78
2018-04-22T00:14:24.320Z,67.82
2018-04-22T00:15:24.316Z,67.63
2018-04-22T00:16:24.319Z,67.72
2018-04-22T00:17:24.323Z,67.72
2018-04-22T00:18:24.308Z,68.30
2018-04-22T00:19:24.298Z,68.01
2018-04-22T00:20:24.311Z,67.98
2018-04-22T00:21:24.300Z,68.01
2018-04-22T00:22:24.293Z,68.07
2018-04-22T00:23:24.292Z,68.11
2018-04-22T00:24:24.297Z,67.82
2018-04-22T00:25:24.297Z,67.98
2018-04-22T00:26:24.281Z,68.07
2018-04-22T00:27:24.287Z,67.98
2018-04-22T00:28:24.282Z,68.46
2018-04-22T00:29:24.283Z,69.32
2018-04-22T00:30:24.284Z,69.23
2018-04-22T00:31:24.274Z,69.70
2018-04-22T00:32:24.315Z,69.42
2018-04-22T00:33:24.271Z,69.32
2018-04-22T00:34:24.262Z,69.42
2018-04-22T00:35:24.264Z,69.32
2018-04-22T00:36:24.257Z,68.94
2018-04-22T00:37:24.253Z,68.74
2018-04-22T00:38:24.260Z,70.15
2018-04-22T00:39:24.260Z,71.04
2018-04-22T00:40:24.243Z,72.06
2018-04-22T00:41:24.291Z,74.07
2018-04-22T00:42:24.238Z,73.84
2018-04-22T00:43:24.257Z,74.61
2018-04-22T00:44:24.243Z,75.18
2018-04-22T00:45:24.235Z,76.33
2018-04-22T00:46:24.231Z,77.63
2018-04-22T00:47:24.224Z,78.39
2018-04-22T00:48:24.229Z,79.54
2018-04-22T00:49:24.218Z,80.02
2018-04-22T00:50:24.218Z,80.17
2018-04-22T00:51:24.212Z,80.74
2018-04-22T00:52:24.215Z,78.83
2018-04-22T00:53:24.213Z,79.73
2018-04-22T00:54:24.206Z,81.07
2018-04-22T00:55:24.202Z,80.36
2018-04-22T00:56:24.200Z,80.93
2018-04-22T00:57:24.203Z,82.46
2018-04-22T00:58:24.194Z,82.08
2018-04-22T00:59:24.193Z,82.81
2018-04-22T01:00:24.190Z,84.23
2018-04-22T01:01:24.191Z,84.91
2018-04-22T01:02:24.178Z,84.52
2018-04-22T01:03:24.183Z,86.24
2018-04-22T01:04:24.183Z,86.24
2018-04-22T01:05:24.169Z,86.72
2018-04-22T01:06:24.173Z,86.82
2018-04-22T01:07:24.177Z,87.01
2018-04-22T01:08:24.166Z,87.35
2018-04-22T01:09:24.170Z,88.11
2018-04-22T01:10:24.167Z,88.97
2018-04-22T01:11:24.157Z,89.25
2018-04-22T01:12:24.152Z,89.92
2018-04-22T01:13:24.145Z,90.11
2018-04-22T01:14:24.146Z,90.97
2018-04-22T01:15:24.135Z,91.55
2018-04-22T01:16:24.138Z,91.55
2018-04-22T01:17:24.133Z,92.21
2018-04-22T01:18:24.133Z,91.74
2018-04-22T01:19:24.121Z,92.12
2018-04-22T01:20:24.124Z,92.12
2018-04-22T01:21:24.122Z,92.12
2018-04-22T01:22:24.117Z,92.79
2018-04-22T01:23:24.110Z,92.60
2018-04-22T01:24:24.110Z,93.26
2018-04-22T01:25:24.107Z,93.31
2018-04-22T01:26:24.107Z,93.31
2018-04-22T01:27:24.105Z,92.83
2018-04-22T01:28:24.103Z,93.70
2018-04-22T01:29:24.093Z,93.31
2018-04-22T02:01:58.897Z,94.65
2018-04-22T02:02:58.870Z,95.03
2018-04-22T02:04:51.764Z,94.36
2018-04-22T02:05:51.739Z,94.51
2018-04-22T02:07:44.713Z,94.03
2018-04-22T02:08:44.681Z,92.93
2018-04-22T02:10:37.599Z,90.11
2018-04-22T02:11:37.580Z,88.49
2018-04-22T02:13:30.552Z,87.44
2018-04-22T02:14:30.527Z,86.68
2018-04-22T02:16:23.469Z,86.58
2018-04-22T02:17:23.428Z,86.49
2018-04-22T02:19:16.402Z,87.06
2018-04-22T02:20:16.373Z,87.73
2018-04-22T02:22:09.400Z,87.54
2018-04-22T02:23:09.393Z,87.25
2018-04-22T02:25:02.372Z,87.92
2018-04-22T02:26:02.344Z,87.44
2018-04-22T02:27:55.299Z,85.25
2018-04-22T02:28:55.278Z,85.91
2018-04-22T02:30:48.202Z,85.05
2018-04-22T02:31:48.182Z,84.96
2018-04-22T02:33:41.113Z,85.72
2018-04-22T02:34:41.077Z,85.63
2018-04-22T02:36:34.045Z,85.63
2018-04-22T02:37:34.009Z,86.87
2018-04-22T02:39:26.965Z,86.82
2018-04-22T02:40:26.939Z,87.21
2018-04-22T02:42:19.880Z,87.49
2018-04-22T02:43:19.841Z,88.54
2018-04-22T02:45:12.807Z,89.54
2018-04-22T02:46:12.779Z,90.12
2018-04-22T02:48:05.800Z,90.79
2018-04-22T02:49:05.769Z,90.69
2018-04-22T02:50:58.704Z,91.64
2018-04-22T02:51:58.680Z,91.83
2018-04-22T02:53:51.642Z,92.50
2018-04-22T02:54:51.609Z,91.93
2018-04-22T02:56:44.549Z,92.12
2018-04-22T02:57:44.529Z,91.46
2018-04-22T03:00:28.538Z,92.22
2018-04-22T03:01:28.513Z,91.46
2018-04-22T03:03:21.437Z,92.22
2018-04-22T03:04:21.421Z,92.03
2018-04-22T03:06:14.379Z,91.74
2018-04-22T03:07:14.347Z,91.83
2018-04-22T03:09:07.291Z,91.36
2018-04-22T03:10:07.296Z,91.36
2018-04-22T03:12:00.216Z,91.60
2018-04-22T03:13:00.193Z,91.69
2018-04-22T03:14:53.169Z,92.27
2018-04-22T03:15:53.137Z,92.65
2018-04-22T03:17:46.097Z,93.03
2018-04-22T03:18:46.062Z,92.08
2018-04-22T03:20:38.998Z,92.65
2018-04-22T03:21:38.977Z,92.27
2018-04-22T03:23:31.960Z,93.32
2018-04-22T03:24:31.940Z,93.88
2018-04-22T03:26:24.829Z,93.60
2018-04-22T03:27:24.811Z,92.27
2018-04-22T03:29:17.745Z,92.84
2018-04-22T03:30:17.712Z,93.32
2018-04-22T03:32:10.640Z,93.60
2018-04-22T03:33:10.620Z,92.65
2018-04-22T03:35:03.633Z,92.74
2018-04-22T03:36:03.590Z,91.60
2018-04-22T03:37:56.522Z,89.74
2018-04-22T03:38:56.497Z,88.35
2018-04-22T03:40:49.407Z,87.78
2018-04-22T03:41:49.375Z,87.49
2018-04-22T03:43:42.296Z,88.07
2018-04-22T03:44:42.271Z,87.68
2018-04-22T03:46:35.251Z,87.49
2018-04-22T03:47:35.225Z,87.83
2018-04-22T03:49:28.198Z,88.21
2018-04-22T03:50:28.176Z,89.26
2018-04-22T03:53:12.308Z,90.12
2018-04-22T03:54:12.276Z,90.45
2018-04-22T03:56:05.132Z,91.69
2018-04-22T03:57:05.118Z,92.08
2018-04-22T03:58:58.083Z,91.69
2018-04-22T03:59:58.046Z,91.60
2018-04-22T04:01:50.978Z,92.08
2018-04-22T04:02:50.956Z,92.36
2018-04-22T04:04:43.903Z,92.46
2018-04-22T04:05:43.880Z,92.36
2018-04-22T04:07:36.839Z,93.51
2018-04-22T04:08:36.828Z,94.03
2018-04-22T04:10:29.814Z,94.03
2018-04-22T04:11:29.785Z,94.98
2018-04-22T04:13:22.730Z,95.36
2018-04-22T04:14:22.689Z,96.12
2018-04-22T04:16:15.623Z,95.56
2018-04-22T04:17:15.607Z,94.56
2018-04-22T04:19:08.548Z,94.37
2018-04-22T04:20:08.524Z,93.79
2018-04-22T04:22:01.592Z,94.17
2018-04-22T04:23:01.574Z,93.51
2018-04-22T04:24:54.430Z,94.08
2018-04-22T04:25:54.406Z,93.41
2018-04-22T04:27:47.318Z,92.55
2018-04-22T04:28:47.304Z,93.32
2018-04-22T04:30:40.252Z,92.84
2018-04-22T04:31:40.199Z,92.74
2018-04-22T04:33:33.238Z,92.65
2018-04-22T04:34:33.225Z,92.36
2018-04-22T04:36:26.123Z,92.36
2018-04-22T04:37:26.097Z,92.46
2018-04-22T04:39:19.043Z,92.12
2018-04-22T04:40:19.024Z,92.74
2018-04-22T04:42:12.000Z,92.74
2018-04-22T04:43:11.999Z,92.65
2018-04-22T04:45:04.926Z,93.60
2018-04-22T04:46:04.895Z,93.79
2018-04-22T04:47:57.850Z,93.60
2018-04-22T04:48:57.823Z,94.17
2018-04-22T04:50:50.753Z,94.37
2018-04-22T04:51:50.730Z,94.37
2018-04-22T04:53:43.687Z,93.98
2018-04-22T04:54:43.679Z,94.51
2018-04-22T04:56:36.677Z,94.84
2018-04-22T04:57:36.630Z,95.03
2018-04-22T04:59:29.739Z,93.98
2018-04-22T05:00:29.646Z,94.17
2018-04-22T05:02:22.571Z,94.27
2018-04-22T05:03:22.609Z,94.37
2018-04-22T05:05:16.631Z,94.22
2018-04-22T05:06:16.603Z,93.74
2018-04-22T05:08:09.425Z,94.12
2018-04-22T05:09:09.409Z,93.84
2018-04-22T05:11:02.349Z,93.65
2018-04-22T05:12:02.316Z,93.51
2018-04-22T05:14:46.349Z,92.17
2018-04-22T05:15:46.329Z,91.78
2018-04-22T05:17:39.257Z,91.12
2018-04-22T05:18:39.266Z,90.83
2018-04-22T05:20:32.165Z,90.83
2018-04-22T05:21:32.137Z,90.31
2018-04-22T05:23:25.063Z,90.11
2018-04-22T05:24:25.039Z,90.40
2018-04-22T05:26:18.004Z,89.64
2018-04-22T05:27:17.964Z,89.45
2018-04-22T05:29:10.898Z,88.49
2018-04-22T05:30:10.929Z,87.44
2018-04-22T05:32:03.831Z,87.29
2018-04-22T05:33:03.803Z,87.48
2018-04-22T05:34:57.262Z,87.48
2018-04-22T05:35:56.786Z,87.01
2018-04-22T05:37:49.681Z,86.72
2018-04-22T05:38:49.662Z,85.77
2018-04-22T05:40:42.593Z,85.62
2018-04-22T05:41:42.567Z,84.47
2018-04-22T05:43:35.532Z,83.61
2018-04-22T05:44:35.547Z,84.76
2018-04-22T05:46:28.514Z,83.94
2018-04-22T05:47:28.495Z,84.13
2018-04-22T05:49:21.443Z,84.42
2018-04-22T05:50:21.421Z,84.13
2018-04-22T05:52:14.412Z,84.80
2018-04-22T05:53:14.387Z,84.23
2018-04-22T05:55:07.369Z,84.52
2018-04-22T05:56:07.314Z,84.27
2018-04-22T05:58:00.265Z,84.17
2018-04-22T05:59:00.245Z,83.03
2018-04-22T06:00:53.168Z,81.78
2018-04-22T06:01:53.158Z,82.45
2018-04-22T06:03:46.059Z,81.21
2018-04-22T06:04:46.040Z,81.73
2018-04-22T06:06:38.989Z,81.25
2018-04-22T06:07:38.963Z,80.77
2018-04-22T06:09:31.893Z,78.32
2018-04-22T06:10:31.872Z,79.75
2018-04-22T06:12:25.029Z,79.08
2018-04-22T06:13:24.997Z,77.75
2018-04-22T06:15:17.985Z,78.42
2018-04-22T06:16:17.971Z,78.22
2018-04-22T06:18:10.883Z,76.89
2018-04-22T06:19:10.857Z,76.69
2018-04-22T06:21:04.100Z,76.06
2018-04-22T06:22:04.082Z,74.91
2018-04-22T06:23:04.929Z,74.24
2018-04-22T06:24:04.146Z,75.39
2018-04-22T06:25:04.064Z,75.39
2018-04-22T06:26:04.132Z,75.96
2018-04-22T06:27:04.063Z,76.06
2018-04-22T06:28:04.058Z,76.54
2018-04-22T06:29:04.202Z,76.06
2018-04-22T06:30:04.071Z,75.90
2018-04-22T06:31:04.057Z,75.52
2018-04-22T06:32:03.971Z,76.06
2018-04-22T06:33:04.050Z,75.87
2018-04-22T06:34:04.254Z,76.82
2018-04-22T06:35:04.048Z,76.39
2018-04-22T06:36:05.073Z,76.10
2018-04-22T06:37:04.045Z,75.62
2018-04-22T06:38:04.058Z,75.33
2018-04-22T06:39:04.077Z,76.57
2018-04-22T06:40:04.067Z,76.81
2018-04-22T06:41:04.085Z,77.29
2018-04-22T06:42:04.098Z,77.48
2018-04-22T06:43:04.105Z,77.00
2018-04-22T06:44:04.104Z,76.84
2018-04-22T06:45:04.115Z,75.70
2018-04-22T06:46:04.076Z,74.83
2018-04-22T06:47:04.123Z,73.91
2018-04-22T06:48:04.127Z,74.01
2018-04-22T06:49:04.135Z,74.01
2018-04-22T06:50:04.146Z,73.91
2018-04-22T06:51:04.038Z,73.75
2018-04-22T06:52:04.161Z,71.73
2018-04-22T06:53:04.174Z,71.93
2018-04-22T06:54:04.050Z,72.99
2018-04-22T06:55:04.188Z,72.79
2018-04-22T06:56:04.197Z,72.60
2018-04-22T06:57:04.027Z,72.12
2018-04-22T06:58:04.036Z,72.22
2018-04-22T06:59:04.078Z,71.55
2018-04-22T07:00:04.035Z,71.83
2018-04-22T07:01:04.048Z,72.50
2018-04-22T07:02:04.044Z,72.02
2018-04-22T07:03:04.022Z,71.73
2018-04-22T07:04:04.266Z,72.02
2018-04-22T07:05:04.957Z,72.89
2018-04-22T07:06:04.037Z,72.60
2018-04-22T07:07:04.064Z,72.31
2018-04-22T07:08:04.087Z,72.79
2018-04-22T07:09:04.049Z,72.89
2018-04-22T07:10:04.065Z,72.38
2018-04-22T07:11:04.124Z,70.65
2018-04-22T07:12:04.080Z,68.67
2018-04-22T07:13:04.123Z,68.29
2018-04-22T07:14:04.094Z,69.15
2018-04-22T07:15:04.103Z,69.63
2018-04-22T07:16:04.105Z,69.92
2018-04-22T07:17:04.081Z,69.63
2018-04-22T07:18:04.097Z,69.44
2018-04-22T07:19:04.958Z,68.67
2018-04-22T07:20:04.142Z,66.71
2018-04-22T07:21:04.052Z,64.82
2018-04-22T07:22:04.072Z,65.30
2018-04-22T07:23:04.150Z,65.11
2018-04-22T07:24:04.194Z,65.14
2018-04-22T07:25:04.127Z,64.95
2018-04-22T07:26:04.179Z,64.82
2018-04-22T07:27:04.077Z,64.92
2018-04-22T07:28:04.097Z,65.40
2018-04-22T07:29:04.319Z,65.98
2018-04-22T07:30:04.201Z,64.56
2018-04-22T07:31:04.208Z,64.18
2018-04-22T07:32:04.223Z,63.50
2018-04-22T07:33:04.126Z,63.50
2018-04-22T07:34:04.229Z,63.21
2018-04-22T07:35:04.244Z,61.44
2018-04-22T07:36:04.237Z,59.48
2018-04-22T07:37:04.147Z,58.12
2018-04-22T07:38:04.147Z,59.45
2018-04-22T07:39:04.250Z,58.51
2018-04-22T07:40:04.256Z,57.96
2018-04-22T07:41:04.274Z,58.15
2018-04-22T07:42:04.310Z,58.35
2018-04-22T07:43:04.292Z,56.61
2018-04-22T07:44:04.288Z,56.54
2018-04-22T07:45:05.253Z,56.67
2018-04-22T07:46:04.300Z,55.34
2018-04-22T07:47:04.325Z,53.72
2018-04-22T07:48:04.321Z,52.85
2018-04-22T07:49:04.343Z,52.85
2018-04-22T07:50:04.332Z,52.66
2018-04-22T07:51:04.351Z,51.42
2018-04-22T07:52:04.348Z,50.77
2018-04-22T07:53:04.344Z,49.70
2018-04-22T07:54:04.346Z,49.77
2018-04-22T07:55:04.466Z,50.52
2018-04-22T07:56:04.385Z,51.28
2018-04-22T07:57:04.392Z,52.14
2018-04-22T07:58:04.381Z,51.52
2018-04-22T07:59:04.396Z,49.41
2018-04-22T08:00:04.613Z,49.68
2018-04-22T08:01:04.625Z,51.25
2018-04-22T08:02:04.455Z,50.45
2018-04-22T08:03:04.430Z,51.64
2018-04-22T08:04:04.631Z,50.16
2018-04-22T08:05:04.464Z,49.75
2018-04-22T08:06:04.644Z,49.90
2018-04-22T08:07:04.485Z,48.52
2018-04-22T08:08:04.497Z,48.69
2018-04-22T08:09:04.739Z,49.44
2018-04-22T08:10:04.526Z,48.30
2018-04-22T08:11:04.687Z,48.42
2018-04-22T08:12:04.555Z,49.92
2018-04-22T08:13:04.563Z,48.61
2018-04-22T08:14:04.699Z,46.86
2018-04-22T08:15:04.694Z,46.98
2018-04-22T08:16:04.618Z,46.15
2018-04-22T08:17:04.790Z,43.96
2018-04-22T08:18:04.735Z,42.70
2018-04-22T08:19:04.698Z,42.49
2018-04-22T08:20:04.673Z,43.44
2018-04-22T08:21:04.752Z,42.25
2018-04-22T08:22:04.698Z,44.44
2018-04-22T08:23:04.751Z,44.83
2018-04-22T08:24:04.754Z,44.68
2018-04-22T08:25:04.768Z,44.58
2018-04-22T08:26:04.973Z,44.92
2018-04-22T08:27:04.774Z,42.78
2018-04-22T08:28:04.804Z,43.61
2018-04-22T08:29:05.015Z,43.24
2018-04-22T08:30:04.827Z,42.68
2018-04-22T08:31:04.837Z,42.56
2018-04-22T08:32:04.858Z,42.63
2018-04-22T08:33:04.878Z,42.00
2018-04-22T08:34:04.895Z,42.05
2018-04-22T08:35:04.804Z,41.67
2018-04-22T08:36:04.957Z,42.93
2018-04-22T08:37:05.017Z,42.64
2018-04-22T08:38:04.961Z,42.54
2018-04-22T08:39:05.083Z,42.19
2018-04-22T08:40:05.009Z,41.59
2018-04-22T08:41:05.078Z,41.78
2018-04-22T08:42:05.019Z,41.51
2018-04-22T08:43:05.034Z,42.58
2018-04-22T08:44:05.069Z,42.91
2018-04-22T08:45:05.079Z,40.29
2018-04-22T08:46:05.116Z,40.31
2018-04-22T08:47:05.124Z,40.41
2018-04-22T08:48:05.319Z,41.09
2018-04-22T08:49:05.282Z,41.09
2018-04-22T08:50:05.179Z,42.11
2018-04-22T08:51:05.177Z,41.01
2018-04-22T08:52:05.191Z,41.14
2018-04-22T08:53:05.972Z,41.48
2018-04-22T08:54:05.402Z,42.28
2018-04-22T08:55:05.326Z,40.45
2018-04-22T08:56:05.470Z,39.53
2018-04-22T08:57:05.993Z,41.06
2018-04-22T08:58:05.288Z,40.91
2018-04-22T08:59:05.389Z,40.60
2018-04-22T09:00:05.350Z,39.76
2018-04-22T09:01:05.351Z,38.59
2018-04-22T09:02:05.477Z,37.57
2018-04-22T09:03:05.381Z,38.24
2018-04-22T09:04:05.432Z,38.04
2018-04-22T09:05:05.434Z,37.01
2018-04-22T09:06:05.456Z,37.21
2018-04-22T09:07:05.454Z,37.12
2018-04-22T09:08:05.497Z,35.40
2018-04-22T09:09:05.671Z,34.75
2018-04-22T09:10:05.514Z,34.98
2018-04-22T09:11:05.571Z,33.70
2018-04-22T09:12:05.536Z,34.06
2018-04-22T09:13:05.565Z,34.97
2018-04-22T09:14:05.704Z,35.51
2018-04-22T09:15:05.606Z,36.47
2018-04-22T09:16:05.835Z,37.25
2018-04-22T09:17:05.744Z,37.60
2018-04-22T09:18:05.727Z,36.04
2018-04-22T09:19:05.739Z,37.50
2018-04-22T09:20:05.695Z,35.27
2018-04-22T09:21:05.713Z,35.24
2018-04-22T09:22:05.736Z,36.33
2018-04-22T09:23:05.843Z,35.95
2018-04-22T09:24:05.972Z,35.99
2018-04-22T09:25:05.795Z,35.48
2018-04-22T09:26:05.985Z,35.36
2018-04-22T09:27:05.830Z,37.22
2018-04-22T09:28:05.868Z,35.69
2018-04-22T09:29:05.991Z,36.28
2018-04-22T09:30:05.893Z,35.25
2018-04-22T09:31:05.912Z,36.52
2018-04-22T09:32:05.932Z,37.83
2018-04-22T09:33:05.952Z,36.46
2018-04-22T09:34:06.092Z,35.40
2018-04-22T09:35:05.989Z,35.38
2018-04-22T09:36:06.162Z,36.15
2018-04-22T09:37:06.150Z,36.52
2018-04-22T09:38:06.059Z,37.02
2018-04-22T09:39:07.073Z,35.79
2018-04-22T09:40:06.085Z,35.66
2018-04-22T09:41:06.281Z,37.22
2018-04-22T09:42:06.284Z,36.83
2018-04-22T09:43:06.146Z,35.69
2018-04-22T09:44:06.322Z,34.26
2018-04-22T09:45:06.278Z,35.44
2018-04-22T09:46:06.207Z,34.39
2018-04-22T09:47:06.224Z,36.21
2018-04-22T09:48:06.317Z,37.73
2018-04-22T09:49:06.283Z,36.79
2018-04-22T09:50:06.296Z,36.41
2018-04-22T09:51:06.298Z,35.47
2018-04-22T09:52:06.324Z,32.76
2018-04-22T09:53:06.364Z,33.23
2018-04-22T09:54:06.381Z,33.33
2018-04-22T09:55:06.576Z,33.80
2018-04-22T09:56:06.465Z,34.47
2018-04-22T09:57:06.581Z,34.69
2018-04-22T09:58:06.617Z,31.97
2018-04-22T09:59:06.534Z,34.26
2018-04-22T10:00:06.477Z,32.53
2018-04-22T10:01:06.501Z,31.05
2018-04-22T10:02:06.625Z,30.47
2018-04-22T10:03:06.528Z,31.09
2018-04-22T10:04:06.636Z,29.90
2018-04-22T10:05:06.579Z,31.46
2018-04-22T10:06:06.602Z,32.14
2018-04-22T10:07:06.618Z,31.25
2018-04-22T10:08:06.646Z,31.99
2018-04-22T10:09:06.813Z,33.75
2018-04-22T10:10:06.672Z,32.94
2018-04-22T10:11:06.774Z,32.63
2018-04-22T10:12:06.802Z,33.92
2018-04-22T10:13:06.638Z,34.38
2018-04-22T10:14:06.788Z,34.45
2018-04-22T10:15:06.895Z,34.08
2018-04-22T10:16:06.867Z,34.01
2018-04-22T10:17:06.936Z,36.18
2018-04-22T10:18:06.932Z,36.04
2018-04-22T10:19:06.947Z,34.60
2018-04-22T10:20:06.912Z,36.18
2018-04-22T10:21:06.912Z,35.63
2018-04-22T10:22:06.930Z,36.16
2018-04-22T10:23:06.961Z,34.88
2018-04-22T10:24:07.179Z,33.80
2018-04-22T10:25:06.982Z,34.21
2018-04-22T10:26:07.198Z,33.43
2018-04-22T10:27:07.035Z,33.56
2018-04-22T10:28:07.057Z,32.98
2018-04-22T10:29:07.291Z,32.10
2018-04-22T10:30:07.103Z,31.84
2018-04-22T10:31:07.121Z,32.62
2018-04-22T10:32:07.221Z,31.64
2018-04-22T10:33:07.160Z,31.48
2018-04-22T10:34:07.246Z,31.36
2018-04-22T10:35:07.234Z,31.57
2018-04-22T10:36:07.252Z,31.74
2018-04-22T10:37:07.257Z,31.02
2018-04-22T10:38:07.383Z,32.01
2018-04-22T10:39:07.482Z,32.37
2018-04-22T10:40:07.358Z,32.97
2018-04-22T10:41:07.326Z,33.05
2018-04-22T10:42:07.344Z,32.64
2018-04-22T10:43:07.365Z,33.48
2018-04-22T10:44:07.406Z,33.92
2018-04-22T10:45:07.436Z,32.86
2018-04-22T10:46:07.535Z,32.97
2018-04-22T10:47:07.529Z,31.90
2018-04-22T10:48:07.535Z,31.81
2018-04-22T10:49:07.581Z,32.92
2018-04-22T10:50:07.533Z,34.20
2018-04-22T10:51:07.532Z,32.93
2018-04-22T10:52:07.568Z,31.57
2018-04-22T10:53:07.698Z,32.36
2018-04-22T10:54:07.787Z,30.76
2018-04-22T10:55:07.614Z,31.64
2018-04-22T10:56:07.683Z,30.98
2018-04-22T10:57:07.808Z,32.19
2018-04-22T10:58:07.837Z,34.64
2018-04-22T10:59:07.864Z,34.75
2018-04-22T11:00:07.623Z,34.39
2018-04-22T11:01:07.748Z,34.50
2018-04-22T11:02:07.868Z,35.66
2018-04-22T11:03:07.786Z,35.31
2018-04-22T11:04:07.853Z,36.65
2018-04-22T11:05:07.856Z,37.71
2018-04-22T11:06:07.871Z,38.57
2018-04-22T11:07:07.864Z,38.22
2018-04-22T11:08:08.088Z,37.93
2018-04-22T11:09:08.082Z,37.93
2018-04-22T11:10:08.095Z,36.78
2018-04-22T11:11:08.111Z,37.04
2018-04-22T11:12:07.962Z,39.36
2018-04-22T11:13:07.997Z,40.80
2018-04-22T11:14:08.028Z,39.45
2018-04-22T11:15:08.028Z,37.01
2018-04-22T11:16:08.128Z,37.29
2018-04-22T11:17:08.090Z,37.87
2018-04-22T11:18:08.090Z,39.67
2018-04-22T11:19:08.133Z,38.53
2018-04-22T11:20:08.130Z,36.40
2018-04-22T11:21:08.183Z,36.84
2018-04-22T11:22:08.158Z,35.86
2018-04-22T11:23:08.940Z,34.39
2018-04-22T11:24:08.932Z,34.65
2018-04-22T11:25:08.188Z,36.02
2018-04-22T11:26:08.921Z,36.25
2018-04-22T11:27:08.201Z,35.58
2018-04-22T11:28:08.213Z,34.06
2018-04-22T11:29:08.914Z,34.29
2018-04-22T11:30:08.197Z,35.77
2018-04-22T11:31:08.219Z,36.23
2018-04-22T11:32:08.925Z,35.92
2018-04-22T11:33:08.363Z,36.58
2018-04-22T11:34:08.274Z,38.26
2018-04-22T11:35:08.346Z,36.78
2018-04-22T11:36:08.321Z,36.66
2018-04-22T11:37:08.381Z,39.61
2018-04-22T11:38:08.357Z,39.28
2018-04-22T11:39:08.365Z,38.30
2018-04-22T11:40:08.393Z,37.96
2018-04-22T11:41:08.424Z,36.37
2018-04-22T11:42:08.424Z,37.23
2018-04-22T11:43:08.439Z,38.04
2018-04-22T11:44:08.569Z,36.91
2018-04-22T11:45:08.470Z,37.27
2018-04-22T11:46:08.505Z,37.45
2018-04-22T11:47:08.519Z,38.24
2018-04-22T11:48:08.538Z,38.45
2018-04-22T11:49:08.552Z,38.81
2018-04-22T11:50:08.581Z,38.24
2018-04-22T11:51:08.585Z,36.36
2018-04-22T11:52:08.596Z,34.99
2018-04-22T11:53:08.732Z,36.21
2018-04-22T11:54:08.738Z,36.83
2018-04-22T11:55:08.763Z,37.55
2018-04-22T11:56:08.778Z,35.48
2018-04-22T11:57:08.805Z,34.70
2018-04-22T11:58:08.812Z,34.33
2018-04-22T11:59:08.856Z,35.36
2018-04-22T12:00:08.819Z,36.91
2018-04-22T12:01:08.779Z,37.83
2018-04-22T12:02:08.780Z,36.33
2018-04-22T12:03:08.799Z,34.10
2018-04-22T12:04:08.897Z,33.48
2018-04-22T12:05:08.840Z,34.55
2018-04-22T12:06:08.873Z,35.35
2018-04-22T12:07:08.876Z,34.78
2018-04-22T12:08:08.893Z,35.77
2018-04-22T12:09:08.919Z,35.27
2018-04-22T12:10:08.932Z,35.66
2018-04-22T12:11:08.969Z,36.31
2018-04-22T12:12:08.982Z,37.79
2018-04-22T12:13:09.081Z,36.13
2018-04-22T12:14:09.107Z,37.21
2018-04-22T12:15:09.118Z,37.19
2018-04-22T12:16:09.169Z,37.60
2018-04-22T12:17:09.237Z,35.56
2018-04-22T12:18:09.211Z,35.89
2018-04-22T12:19:09.204Z,35.27
2018-04-22T12:20:09.214Z,36.02
2018-04-22T12:21:09.226Z,38.40
2018-04-22T12:22:09.244Z,39.03
2018-04-22T12:23:09.278Z,40.66
2018-04-22T12:24:09.279Z,40.72
2018-04-22T12:25:09.214Z,42.18
2018-04-22T12:26:09.257Z,40.33
2018-04-22T12:27:09.326Z,42.44
2018-04-22T12:28:09.359Z,45.77
2018-04-22T12:29:09.409Z,44.60
2018-04-22T12:30:09.271Z,44.04
2018-04-22T12:31:09.280Z,41.32
2018-04-22T12:32:09.444Z,42.36
2018-04-22T12:33:09.413Z,43.34
2018-04-22T12:34:09.478Z,45.87
2018-04-22T12:35:09.454Z,44.89
2018-04-22T12:36:09.350Z,42.54
2018-04-22T12:37:09.462Z,43.10
2018-04-22T12:38:09.482Z,42.50
2018-04-22T12:39:09.479Z,42.29
2018-04-22T12:40:09.492Z,44.13
2018-04-22T12:41:09.506Z,43.74
2018-04-22T12:42:09.530Z,43.57
2018-04-22T12:43:09.425Z,43.93
2018-04-22T12:44:09.549Z,45.61
2018-04-22T12:45:09.646Z,47.45
2018-04-22T12:46:09.558Z,45.31
2018-04-22T12:47:09.578Z,45.70
2018-04-22T12:48:09.571Z,44.27
2018-04-22T12:49:09.611Z,47.18
2018-04-22T12:50:09.482Z,44.07
2018-04-22T12:51:09.612Z,45.53
2018-04-22T12:52:09.590Z,47.69
2018-04-22T12:53:09.613Z,47.49
2018-04-22T12:54:09.616Z,45.94
2018-04-22T12:55:09.512Z,45.84
2018-04-22T12:56:09.573Z,45.36
2018-04-22T12:57:09.628Z,44.00
2018-04-22T12:58:09.640Z,44.48
2018-04-22T12:59:09.667Z,44.48
2018-04-22T13:00:09.696Z,46.04
2018-04-22T13:01:09.662Z,45.65
2018-04-22T13:02:09.659Z,44.19
2018-04-22T13:03:09.692Z,42.52
2018-04-22T13:04:09.707Z,42.23
2018-04-22T13:05:09.726Z,43.86
2018-04-22T13:06:09.688Z,45.14
2018-04-22T13:07:09.695Z,47.57
2018-04-22T13:08:09.728Z,46.89
2018-04-22T13:09:09.710Z,46.11
2018-04-22T13:10:09.712Z,45.55
2018-04-22T13:11:09.719Z,43.57
2018-04-22T13:12:09.707Z,43.66
2018-04-22T13:13:09.733Z,44.73
2018-04-22T13:14:09.749Z,44.23
2018-04-22T13:15:09.743Z,45.51
2018-04-22T13:16:09.747Z,46.77
2018-04-22T13:17:09.752Z,45.51
2018-04-22T13:18:09.761Z,44.17
2018-04-22T13:19:09.760Z,45.24
2018-04-22T13:20:09.804Z,43.88
2018-04-22T13:21:09.776Z,43.47
2018-04-22T13:22:09.776Z,44.07
2018-04-22T13:23:09.799Z,44.85
2018-04-22T13:24:09.792Z,46.01
2018-04-22T13:25:09.798Z,43.59
2018-04-22T13:26:09.815Z,44.95
2018-04-22T13:27:09.791Z,44.56
2018-04-22T13:28:09.703Z,43.78
2018-04-22T13:29:09.831Z,45.82
2018-04-22T13:30:09.812Z,45.82
2018-04-22T13:31:09.821Z,42.02
2018-04-22T13:32:09.825Z,42.21
2018-04-22T13:33:09.831Z,43.66
2018-04-22T13:34:09.839Z,44.92
2018-04-22T13:35:09.844Z,48.35
2018-04-22T13:36:09.850Z,46.86
2018-04-22T13:37:09.890Z,46.79
2018-04-22T13:38:09.855Z,46.01
2018-04-22T13:39:09.858Z,45.04
2018-04-22T13:40:09.950Z,43.98
2018-04-22T13:41:09.878Z,44.07
2018-04-22T13:42:09.895Z,43.68
2018-04-22T13:43:09.891Z,45.62
2018-04-22T13:44:09.878Z,45.62
2018-04-22T13:45:09.884Z,46.89
2018-04-22T13:46:09.886Z,43.49
2018-04-22T13:47:09.797Z,44.07
2018-04-22T13:48:09.799Z,45.43
2018-04-22T13:49:09.906Z,44.65
2018-04-22T13:50:09.908Z,42.13
2018-04-22T13:51:09.821Z,42.40
2018-04-22T13:52:09.924Z,43.37
2018-04-22T13:53:10.761Z,42.21
2018-04-22T13:54:09.945Z,41.05
2018-04-22T13:55:09.944Z,44.15
2018-04-22T13:56:09.936Z,45.70
2018-04-22T13:57:09.956Z,45.89
2018-04-22T13:58:09.954Z,45.89
2018-04-22T13:59:09.969Z,44.92
2018-04-22T14:00:09.955Z,45.62
2018-04-22T14:01:09.953Z,43.95
2018-04-22T14:02:09.962Z,44.85
2018-04-22T14:03:09.967Z,45.04
2018-04-22T14:04:09.874Z,43.59
2018-04-22T14:05:09.966Z,42.52
2018-04-22T14:06:09.975Z,42.33
2018-04-22T14:07:09.976Z,42.81
2018-04-22T14:08:09.981Z,43.01
2018-04-22T14:09:10.001Z,44.56
2018-04-22T14:10:09.998Z,43.78
2018-04-22T14:11:10.019Z,43.30
2018-04-22T14:12:10.009Z,43.40
2018-04-22T14:13:10.012Z,44.27
2018-04-22T14:14:10.022Z,40.09
2018-04-22T14:15:10.023Z,42.52
2018-04-22T14:16:10.028Z,44.07
2018-04-22T14:17:10.033Z,45.04
2018-04-22T14:18:10.044Z,44.24
2018-04-22T14:19:10.029Z,44.34
2018-04-22T14:20:10.048Z,43.01
2018-04-22T14:21:10.074Z,40.56
2018-04-22T14:22:10.061Z,41.53
2018-04-22T14:23:10.056Z,44.15
2018-04-22T14:24:10.061Z,43.37
2018-04-22T14:25:10.070Z,42.40
2018-04-22T14:26:10.066Z,43.27
2018-04-22T14:27:10.074Z,42.40
2018-04-22T14:28:10.079Z,42.50
2018-04-22T14:29:10.080Z,41.82
2018-04-22T14:30:10.105Z,42.89
2018-04-22T14:31:10.093Z,42.52
2018-04-22T14:32:10.085Z,44.92
2018-04-22T14:33:10.096Z,42.69
2018-04-22T14:34:10.105Z,42.40
2018-04-22T14:35:10.104Z,41.14
2018-04-22T14:36:10.109Z,41.53
2018-04-22T14:37:10.111Z,40.66
2018-04-22T14:38:10.123Z,42.69
2018-04-22T14:39:10.132Z,43.76
2018-04-22T14:40:10.145Z,41.63
2018-04-22T14:41:10.147Z,39.01
2018-04-22T14:42:10.140Z,38.62
2018-04-22T14:43:10.161Z,37.65
2018-04-22T14:44:10.152Z,39.29
2018-04-22T14:45:10.171Z,40.17